createdAt,value
2018-12-04T00:02:28.264Z,73.11
2018-12-04T00:04:56.626Z,73.43
2018-12-04T00:07:24.998Z,73.09
2018-12-04T00:09:53.330Z,73.54
2018-12-04T00:12:21.598Z,73.55
2018-12-04T00:14:49.941Z,73.69
2018-12-04T00:17:18.269Z,74.00
2018-12-04T00:19:46.773Z,75.25
2018-12-04T00:22:15.253Z,75.28
2018-12-04T00:24:43.574Z,75.46
2018-12-04T00:27:11.883Z,75.12
2018-12-04T00:29:40.233Z,75.47
2018-12-04T00:32:08.529Z,75.66
2018-12-04T00:34:36.806Z,76.10
2018-12-04T00:37:05.096Z,75.78
2018-12-04T00:39:33.363Z,75.82
2018-12-04T00:42:01.650Z,75.67
2018-12-04T00:44:30.171Z,75.32
2018-12-04T00:46:58.501Z,75.48
2018-12-04T00:49:26.783Z,75.30
2018-12-04T00:51:55.113Z,75.46
2018-12-04T00:54:23.415Z,75.93
2018-12-04T00:56:51.805Z,76.41
2018-12-04T00:59:20.223Z,77.09
2018-12-04T01:01:48.524Z,76.95
2018-12-04T01:04:16.837Z,76.58
2018-12-04T01:06:45.247Z,77.16
2018-12-04T01:09:13.517Z,77.58
2018-12-04T01:11:41.825Z,78.35
2018-12-04T01:14:10.146Z,78.14
2018-12-04T01:16:38.432Z,77.63
2018-12-04T01:19:07.403Z,78.17
2018-12-04T01:21:35.801Z,78.17
2018-12-04T01:24:04.238Z,78.22
2018-12-04T01:26:32.548Z,78.39
2018-12-04T01:29:01.350Z,78.98
2018-12-04T01:31:29.680Z,78.72
2018-12-04T01:33:58.106Z,79.20
2018-12-04T01:36:26.461Z,78.99
2018-12-04T01:38:54.891Z,78.90
2018-12-04T01:41:23.220Z,78.36
2018-12-04T01:43:51.605Z,78.33
2018-12-04T01:46:20.403Z,78.58
2018-12-04T01:48:48.691Z,78.88
2018-12-04T01:51:17.491Z,79.11
2018-12-04T01:53:45.785Z,79.47
2018-12-04T01:56:14.206Z,79.37
2018-12-04T01:58:42.514Z,78.68
2018-12-04T02:01:10.817Z,78.33
2018-12-04T02:03:39.089Z,78.31
2018-12-04T02:06:07.501Z,78.01
2018-12-04T02:08:36.714Z,78.31
2018-12-04T02:11:05.022Z,78.44
2018-12-04T02:13:33.817Z,78.52
2018-12-04T02:16:02.126Z,79.00
2018-12-04T02:18:30.413Z,78.94
2018-12-04T02:20:58.738Z,78.98
2018-12-04T02:23:27.186Z,79.56
2018-12-04T02:25:55.522Z,79.72
2018-12-04T02:28:26.323Z,79.96
2018-12-04T02:30:54.605Z,79.22
2018-12-04T02:33:22.893Z,78.71
2018-12-04T02:35:51.422Z,78.53
2018-12-04T02:38:19.708Z,79.18
2018-12-04T02:40:48.016Z,80.01
2018-12-04T02:43:16.340Z,79.95
2018-12-04T02:45:44.757Z,80.15
2018-12-04T02:48:13.028Z,79.96
2018-12-04T02:50:41.388Z,79.22
2018-12-04T02:53:09.661Z,79.91
2018-12-04T02:55:38.041Z,80.56
2018-12-04T02:58:06.407Z,79.29
2018-12-04T03:00:34.725Z,79.99
2018-12-04T03:03:03.037Z,81.34
2018-12-04T03:05:31.375Z,80.78
2018-12-04T03:07:59.659Z,81.13
2018-12-04T03:10:27.991Z,81.55
2018-12-04T03:12:56.299Z,80.65
2018-12-04T03:15:24.603Z,80.19
2018-12-04T03:17:52.918Z,80.52
2018-12-04T03:20:21.304Z,80.17
2018-12-04T03:22:49.610Z,81.33
2018-12-04T03:25:17.941Z,81.09
2018-12-04T03:27:46.264Z,81.53
2018-12-04T03:30:14.617Z,81.41
2018-12-04T03:32:43.026Z,81.59
2018-12-04T03:35:11.475Z,81.24
2018-12-04T03:37:39.799Z,80.27
2018-12-04T03:40:09.141Z,80.52
2018-12-04T03:42:37.731Z,81.29
2018-12-04T03:45:06.252Z,81.25
2018-12-04T03:47:34.620Z,80.92
2018-12-04T03:50:02.997Z,80.94
2018-12-04T03:52:31.263Z,80.58
2018-12-04T03:54:59.550Z,80.63
2018-12-04T03:57:28.109Z,80.41
2018-12-04T03:59:56.392Z,80.21
2018-12-04T04:02:24.662Z,79.51
2018-12-04T04:04:53.081Z,80.18
2018-12-04T04:07:21.390Z,80.26
2018-12-04T04:09:49.673Z,80.30
2018-12-04T04:12:17.968Z,79.15
2018-12-04T04:14:46.267Z,78.87
2018-12-04T04:17:14.545Z,79.27
2018-12-04T04:19:42.961Z,78.68
2018-12-04T04:22:11.235Z,78.95
2018-12-04T04:24:39.567Z,79.29
2018-12-04T04:27:08.018Z,79.88
2018-12-04T04:29:36.429Z,79.45
2018-12-04T04:32:04.747Z,79.32
2018-12-04T04:34:33.049Z,79.15
2018-12-04T04:37:01.470Z,79.66
2018-12-04T04:39:29.889Z,80.11
2018-12-04T04:41:58.281Z,79.49
2018-12-04T04:44:26.643Z,80.43
2018-12-04T04:46:54.933Z,80.30
2018-12-04T04:49:23.483Z,80.83
2018-12-04T04:51:51.782Z,79.95
2018-12-04T04:54:20.160Z,79.85
2018-12-04T04:56:48.530Z,79.29
2018-12-04T04:59:17.021Z,79.02
2018-12-04T05:01:45.416Z,79.09
2018-12-04T05:04:13.979Z,79.01
2018-12-04T05:06:42.375Z,78.96
2018-12-04T05:09:10.776Z,79.01
2018-12-04T05:11:39.541Z,78.77
2018-12-04T05:14:08.008Z,79.65
2018-12-04T05:16:36.432Z,78.57
2018-12-04T05:19:04.733Z,79.29
2018-12-04T05:21:33.162Z,79.75
2018-12-04T05:24:01.641Z,80.19
2018-12-04T05:26:30.022Z,79.96
2018-12-04T05:28:58.315Z,79.60
2018-12-04T05:31:26.658Z,79.77
2018-12-04T05:33:55.267Z,78.75
2018-12-04T05:36:23.559Z,78.62
2018-12-04T05:38:52.178Z,79.37
2018-12-04T05:41:20.611Z,79.11
2018-12-04T05:43:48.903Z,78.63
2018-12-04T05:46:17.259Z,78.47
2018-12-04T05:48:45.577Z,79.16
2018-12-04T05:51:13.917Z,78.54
2018-12-04T05:53:42.263Z,78.33
2018-12-04T05:56:10.891Z,78.87
2018-12-04T05:58:39.262Z,78.96
2018-12-04T06:01:07.625Z,78.84
2018-12-04T06:03:36.055Z,78.47
2018-12-04T06:06:04.510Z,77.85
2018-12-04T06:08:32.866Z,76.80
2018-12-04T06:11:01.184Z,75.79
2018-12-04T06:13:29.583Z,76.14
2018-12-04T06:15:58.033Z,76.29
2018-12-04T06:18:26.606Z,77.31
2018-12-04T06:20:54.985Z,76.59
2018-12-04T06:23:23.285Z,75.98
2018-12-04T06:25:51.817Z,76.46
2018-12-04T06:28:20.159Z,76.93
2018-12-04T06:30:48.461Z,76.60
2018-12-04T06:33:16.948Z,76.72
2018-12-04T06:35:45.302Z,76.99
2018-12-04T06:38:13.568Z,77.73
2018-12-04T06:40:42.092Z,78.02
2018-12-04T06:43:10.413Z,77.70
2018-12-04T06:45:38.761Z,77.71
2018-12-04T06:48:07.222Z,77.65
2018-12-04T06:50:35.531Z,77.81
2018-12-04T06:53:03.810Z,78.90
2018-12-04T06:55:32.164Z,78.60
2018-12-04T06:58:00.570Z,79.09
2018-12-04T07:00:28.911Z,79.19
2018-12-04T07:02:57.268Z,78.73
2018-12-04T07:05:25.561Z,79.03
2018-12-04T07:07:53.953Z,78.64
2018-12-04T07:10:22.318Z,78.40
2018-12-04T07:12:50.721Z,78.61
2018-12-04T07:15:19.052Z,78.44
2018-12-04T07:17:47.417Z,77.07
2018-12-04T07:20:15.733Z,76.30
2018-12-04T07:22:44.145Z,76.82
2018-12-04T07:25:12.685Z,77.49
2018-12-04T07:27:40.961Z,76.07
2018-12-04T07:30:09.468Z,76.13
2018-12-04T07:32:38.855Z,76.67
2018-12-04T07:35:07.678Z,76.08
2018-12-04T07:37:35.959Z,74.86
2018-12-04T07:40:05.260Z,74.67
2018-12-04T07:42:33.714Z,74.27
2018-12-04T07:45:02.034Z,72.87
2018-12-04T07:47:30.591Z,71.30
2018-12-04T07:49:58.893Z,71.51
2018-12-04T07:52:27.424Z,71.61
2018-12-04T07:54:55.777Z,72.04
2018-12-04T07:57:24.074Z,72.65
2018-12-04T07:59:52.378Z,73.30
2018-12-04T08:02:20.717Z,73.22
2018-12-04T08:04:49.173Z,72.76
2018-12-04T08:07:17.482Z,72.82
2018-12-04T08:09:46.091Z,72.70
2018-12-04T08:12:14.501Z,72.22
2018-12-04T08:14:42.914Z,67.52
2018-12-04T08:17:11.243Z,63.61
2018-12-04T08:19:39.536Z,59.57
2018-12-04T08:22:07.976Z,58.56
2018-12-04T08:24:36.341Z,56.66
2018-12-04T08:27:04.732Z,55.07
2018-12-04T08:29:33.053Z,53.48
2018-12-04T08:32:01.790Z,53.63
2018-12-04T08:34:30.102Z,58.39
2018-12-04T08:36:58.404Z,60.96
2018-12-04T08:39:26.722Z,63.45
2018-12-04T08:41:55.012Z,65.29
2018-12-04T08:44:23.316Z,65.68
2018-12-04T08:46:51.669Z,65.55
2018-12-04T08:49:20.248Z,65.46
2018-12-04T08:51:48.538Z,64.54
2018-12-04T08:54:17.053Z,64.24
2018-12-04T08:56:45.340Z,62.86
2018-12-04T08:59:13.716Z,56.52
2018-12-04T09:01:42.086Z,55.41
2018-12-04T09:04:10.512Z,56.70
2018-12-04T09:06:38.834Z,59.09
2018-12-04T09:09:09.433Z,61.33
2018-12-04T09:11:37.757Z,63.26
2018-12-04T09:14:06.049Z,64.00
2018-12-04T09:16:34.863Z,65.12
2018-12-04T09:19:03.250Z,65.16
2018-12-04T09:21:31.660Z,64.49
2018-12-04T09:24:00.121Z,63.06
2018-12-04T09:26:28.582Z,56.19
2018-12-04T09:28:57.219Z,47.80
2018-12-04T09:31:25.767Z,43.48
2018-12-04T09:33:54.125Z,40.16
2018-12-04T09:36:22.434Z,37.74
2018-12-04T09:38:51.183Z,36.85
2018-12-04T09:41:19.598Z,36.20
2018-12-04T09:43:47.959Z,36.28
2018-12-04T09:46:16.305Z,34.15
2018-12-04T09:48:44.613Z,36.50
2018-12-04T09:51:12.943Z,36.98
2018-12-04T09:53:41.257Z,34.28
2018-12-04T09:56:09.571Z,34.97
2018-12-04T09:58:37.878Z,34.40
2018-12-04T10:01:06.725Z,33.17
2018-12-04T10:03:35.038Z,33.07
2018-12-04T10:06:03.317Z,33.56
2018-12-04T10:08:31.807Z,37.39
2018-12-04T10:11:00.191Z,39.66
2018-12-04T10:13:28.519Z,39.60
2018-12-04T10:15:56.828Z,38.98
2018-12-04T10:18:25.214Z,37.45
2018-12-04T10:20:53.590Z,35.85
2018-12-04T10:23:21.979Z,37.84
2018-12-04T10:25:50.770Z,41.03
2018-12-04T10:28:19.202Z,44.64
2018-12-04T10:30:52.966Z,47.13
2018-12-04T10:33:21.261Z,47.72
2018-12-04T10:35:49.667Z,48.10
2018-12-04T10:38:18.004Z,49.39
2018-12-04T10:40:46.321Z,45.73
2018-12-04T10:43:14.684Z,39.55
2018-12-04T10:45:43.048Z,34.21
2018-12-04T10:48:11.389Z,32.56
2018-12-04T10:50:39.685Z,31.52
2018-12-04T10:53:08.016Z,29.15
2018-12-04T10:55:36.390Z,27.69
2018-12-04T10:58:04.807Z,27.59
2018-12-04T11:00:35.947Z,27.99
2018-12-04T11:03:09.749Z,27.89
2018-12-04T11:05:38.434Z,27.30
2018-12-04T11:08:06.734Z,26.47
2018-12-04T11:10:35.092Z,26.53
2018-12-04T11:13:04.003Z,27.38
2018-12-04T11:15:32.345Z,26.53
2018-12-04T11:18:00.641Z,26.13
2018-12-04T11:20:28.969Z,24.65
2018-12-04T11:22:57.276Z,25.31
2018-12-04T11:25:25.586Z,24.97
2018-12-04T11:27:53.980Z,24.15
2018-12-04T11:30:22.458Z,25.79
2018-12-04T11:32:50.765Z,23.78
2018-12-04T11:35:19.118Z,24.51
2018-12-04T11:37:47.441Z,24.05
2018-12-04T11:40:15.758Z,24.18
2018-12-04T11:42:44.120Z,23.46
2018-12-04T11:45:12.487Z,23.41
2018-12-04T11:47:40.818Z,24.25
2018-12-04T11:50:09.426Z,25.66
2018-12-04T11:52:37.707Z,26.50
2018-12-04T11:55:06.299Z,34.18
2018-12-04T11:57:34.717Z,43.86
2018-12-04T12:00:03.474Z,48.66
2018-12-04T12:02:32.014Z,50.52
2018-12-04T12:05:00.336Z,46.62
2018-12-04T12:07:28.627Z,49.17
2018-12-04T12:09:56.911Z,49.44
2018-12-04T12:12:25.593Z,46.26
2018-12-04T12:14:53.940Z,39.89
2018-12-04T12:17:22.555Z,34.89
2018-12-04T12:19:51.111Z,32.14
2018-12-04T12:22:19.425Z,31.31
2018-12-04T12:24:47.731Z,31.08
2018-12-04T12:27:16.228Z,30.11
2018-12-04T12:29:44.515Z,28.79
2018-12-04T12:32:12.826Z,27.09
2018-12-04T12:34:41.819Z,28.07
2018-12-04T12:37:10.169Z,28.51
2018-12-04T12:39:38.469Z,28.26
2018-12-04T12:42:06.830Z,31.79
2018-12-04T12:44:35.191Z,34.42
2018-12-04T12:47:03.547Z,37.45
2018-12-04T12:49:31.850Z,40.96
2018-12-04T12:52:00.227Z,40.31
2018-12-04T12:54:28.660Z,36.74
2018-12-04T12:56:57.053Z,34.38
2018-12-04T12:59:25.389Z,34.15
2018-12-04T13:01:53.666Z,35.14
2018-12-04T13:04:21.989Z,35.22
2018-12-04T13:06:50.293Z,33.77
2018-12-04T13:09:18.564Z,32.06
2018-12-04T13:11:46.878Z,32.66
2018-12-04T13:14:15.194Z,34.01
2018-12-04T13:16:43.521Z,34.41
2018-12-04T13:19:12.025Z,32.98
2018-12-04T13:21:41.046Z,32.69
2018-12-04T13:24:09.730Z,32.50
2018-12-04T13:26:38.059Z,31.78
2018-12-04T13:29:06.426Z,31.28
2018-12-04T13:31:34.720Z,31.94
2018-12-04T13:34:03.110Z,32.86
2018-12-04T13:36:31.418Z,33.46
2018-12-04T13:38:59.861Z,32.17
2018-12-04T13:41:28.288Z,32.35
2018-12-04T13:43:56.629Z,32.87
2018-12-04T13:46:24.943Z,32.25
2018-12-04T13:48:53.280Z,32.12
2018-12-04T13:51:21.626Z,32.37
2018-12-04T13:53:50.041Z,32.39
2018-12-04T13:56:18.507Z,34.13
2018-12-04T13:58:48.968Z,34.48
2018-12-04T14:01:17.184Z,37.09
2018-12-04T14:03:46.086Z,38.04
2018-12-04T14:06:14.593Z,38.28
2018-12-04T14:08:42.926Z,39.76
2018-12-04T14:11:11.318Z,40.33
2018-12-04T14:13:39.625Z,41.70
2018-12-04T14:16:08.007Z,42.53
2018-12-04T14:18:36.356Z,44.88
2018-12-04T14:21:04.722Z,45.46
2018-12-04T14:23:33.170Z,46.65
2018-12-04T14:26:02.494Z,46.55
2018-12-04T14:28:30.804Z,47.53
2018-12-04T14:30:59.171Z,48.24
2018-12-04T14:33:27.584Z,49.22
2018-12-04T14:35:56.011Z,49.32
2018-12-04T14:38:24.764Z,49.72
2018-12-04T14:40:53.518Z,50.04
2018-12-04T14:43:21.972Z,50.86
2018-12-04T14:45:50.300Z,51.92
2018-12-04T14:48:18.997Z,51.86
2018-12-04T14:50:47.305Z,52.64
2018-12-04T14:53:15.628Z,52.83
2018-12-04T14:55:44.041Z,54.04
2018-12-04T14:58:12.399Z,54.56
2018-12-04T15:00:40.906Z,55.92
2018-12-04T15:03:09.333Z,55.75
2018-12-04T15:05:37.694Z,55.57
2018-12-04T15:08:06.126Z,56.06
2018-12-04T15:10:34.833Z,56.21
2018-12-04T15:13:03.182Z,57.12
2018-12-04T15:15:31.565Z,57.31
2018-12-04T15:18:00.024Z,57.15
2018-12-04T15:20:28.752Z,57.99
2018-12-04T15:22:57.181Z,57.82
2018-12-04T15:25:25.546Z,58.84
2018-12-04T15:27:53.871Z,59.22
2018-12-04T15:30:22.234Z,58.39
2018-12-04T15:32:50.805Z,59.25
2018-12-04T15:35:19.180Z,59.20
2018-12-04T15:37:47.475Z,59.92
2018-12-04T15:40:16.089Z,60.09
2018-12-04T15:42:44.450Z,60.59
2018-12-04T15:45:12.816Z,60.58
2018-12-04T15:47:41.233Z,59.72
2018-12-04T15:50:09.739Z,60.25
2018-12-04T15:52:38.088Z,61.04
2018-12-04T15:55:06.756Z,60.65
2018-12-04T15:57:35.153Z,60.56
2018-12-04T16:00:05.680Z,61.14
2018-12-04T16:02:34.098Z,60.97
2018-12-04T16:05:02.410Z,61.37
2018-12-04T16:07:32.659Z,61.59
2018-12-04T16:10:01.034Z,63.32
2018-12-04T16:12:29.318Z,64.90
2018-12-04T16:17:37.720Z,64.88
2018-12-04T16:20:07.174Z,64.50
2018-12-04T16:22:39.428Z,64.56
2018-12-04T16:25:08.107Z,64.89
2018-12-04T16:27:36.481Z,64.96
2018-12-04T16:30:06.517Z,64.80
2018-12-04T16:32:34.814Z,65.26
2018-12-04T16:35:03.394Z,64.66
2018-12-04T16:37:31.668Z,64.80
2018-12-04T16:40:00.411Z,64.90
2018-12-04T16:42:28.724Z,65.08
2018-12-04T16:44:57.045Z,65.37
2018-12-04T16:47:25.398Z,65.77
2018-12-04T16:49:53.698Z,64.93
2018-12-04T16:52:22.067Z,65.68
2018-12-04T16:54:50.406Z,66.21
2018-12-04T16:57:18.783Z,66.48
2018-12-04T16:59:47.105Z,66.08
2018-12-04T17:02:15.587Z,66.90
2018-12-04T17:04:43.888Z,66.36
2018-12-04T17:07:12.314Z,66.80
2018-12-04T17:09:40.674Z,66.65
2018-12-04T17:12:09.005Z,66.14
2018-12-04T17:14:37.389Z,66.17
2018-12-04T17:17:05.742Z,65.56
2018-12-04T17:19:35.013Z,65.19
2018-12-04T17:22:03.634Z,65.46
2018-12-04T17:24:32.253Z,65.10
2018-12-04T17:27:00.563Z,66.23
2018-12-04T17:29:28.875Z,66.01
2018-12-04T17:31:57.267Z,66.02
2018-12-04T17:34:25.658Z,66.32
2018-12-04T17:36:53.942Z,67.00
2018-12-04T17:39:22.335Z,67.52
2018-12-04T17:41:50.745Z,67.07
2018-12-04T17:44:19.058Z,68.00
2018-12-04T17:46:47.439Z,67.99
2018-12-04T17:49:15.847Z,68.25
2018-12-04T17:51:44.182Z,68.45
2018-12-04T17:54:12.570Z,68.97
2018-12-04T17:56:40.934Z,68.95
2018-12-04T17:59:09.245Z,68.72
2018-12-04T18:01:37.621Z,68.97
2018-12-04T18:04:06.009Z,69.01
2018-12-04T18:06:34.343Z,68.66
2018-12-04T18:09:03.914Z,68.89
2018-12-04T18:11:32.221Z,68.14
2018-12-04T18:14:00.905Z,69.00
2018-12-04T18:16:29.284Z,69.70
2018-12-04T18:18:57.568Z,69.33
2018-12-04T18:21:25.883Z,69.31
2018-12-04T18:23:54.221Z,69.02
2018-12-04T18:26:22.532Z,69.67
2018-12-04T18:28:50.839Z,69.43
2018-12-04T18:31:19.275Z,69.44
2018-12-04T18:33:47.561Z,69.30
2018-12-04T18:36:15.931Z,69.12
2018-12-04T18:38:44.281Z,69.14
2018-12-04T18:41:12.654Z,69.97
2018-12-04T18:43:40.960Z,69.59
2018-12-04T18:46:09.261Z,69.18
2018-12-04T18:48:37.634Z,69.45
2018-12-04T18:51:06.012Z,69.60
2018-12-04T18:53:35.549Z,69.69
2018-12-04T18:56:03.897Z,70.82
2018-12-04T18:58:32.191Z,69.77
2018-12-04T19:01:00.549Z,70.18
2018-12-04T19:03:28.910Z,70.93
2018-12-04T19:05:57.188Z,70.05
2018-12-04T19:08:27.454Z,70.93
2018-12-04T19:10:55.781Z,70.96
2018-12-04T19:13:24.078Z,70.39
2018-12-04T19:15:52.512Z,71.58
2018-12-04T19:18:20.808Z,72.30
2018-12-04T19:20:49.135Z,71.85
2018-12-04T19:23:17.494Z,71.97
2018-12-04T19:25:46.488Z,72.24
2018-12-04T19:28:14.830Z,72.10
2018-12-04T19:30:43.338Z,71.94
2018-12-04T19:33:11.644Z,71.50
2018-12-04T19:35:39.995Z,71.31
2018-12-04T19:38:08.490Z,71.26
2018-12-04T19:40:36.830Z,71.71
2018-12-04T19:43:05.399Z,71.58
2018-12-04T19:45:34.134Z,71.75
2018-12-04T19:48:02.729Z,71.73
2018-12-04T19:50:31.055Z,71.19
2018-12-04T19:52:59.360Z,71.93
2018-12-04T19:55:27.858Z,71.05
2018-12-04T19:57:56.168Z,71.27
2018-12-04T20:00:24.631Z,71.67
2018-12-04T20:02:53.078Z,71.13
2018-12-04T20:05:21.414Z,71.17
2018-12-04T20:07:49.841Z,71.62
2018-12-04T20:10:18.248Z,70.64
2018-12-04T20:12:46.567Z,70.91
2018-12-04T20:15:15.025Z,70.49
2018-12-04T20:17:43.458Z,70.54
2018-12-04T20:20:11.791Z,69.84
2018-12-04T20:22:40.180Z,71.19
2018-12-04T20:25:08.589Z,70.77
2018-12-04T20:27:36.954Z,71.44
2018-12-04T20:30:06.597Z,70.42
2018-12-04T20:32:34.976Z,70.96
2018-12-04T20:35:04.929Z,71.16
2018-12-04T20:37:33.577Z,71.40
2018-12-04T20:40:01.875Z,71.54
2018-12-04T20:42:30.226Z,71.29
2018-12-04T20:44:58.950Z,70.70
2018-12-04T20:47:27.289Z,70.80
2018-12-04T20:49:55.602Z,71.28
2018-12-04T20:52:23.949Z,71.80
2018-12-04T20:54:52.983Z,71.62
2018-12-04T20:57:21.680Z,70.55
2018-12-04T20:59:50.034Z,71.20
2018-12-04T21:02:18.424Z,72.25
2018-12-04T21:04:46.754Z,72.53
2018-12-04T21:07:15.244Z,71.62
2018-12-04T21:09:43.564Z,71.05
2018-12-04T21:12:11.844Z,71.76
2018-12-04T21:14:40.284Z,71.64
2018-12-04T21:17:08.684Z,71.25
2018-12-04T21:19:37.261Z,72.42
2018-12-04T21:22:05.750Z,72.88
2018-12-04T21:24:34.080Z,72.28
2018-12-04T21:27:02.537Z,72.34
2018-12-04T21:29:36.710Z,71.75
2018-12-04T21:32:10.506Z,72.73
2018-12-04T21:34:48.355Z,72.49
2018-12-04T21:40:27.322Z,73.05
2018-12-04T21:43:01.038Z,72.75
2018-12-04T21:45:35.797Z,73.22
2018-12-04T21:48:04.934Z,71.88
2018-12-04T21:50:33.222Z,71.89
2018-12-04T21:53:01.566Z,71.79
2018-12-04T21:55:29.869Z,72.35
2018-12-04T21:57:58.142Z,71.72
2018-12-04T22:00:26.450Z,72.86
2018-12-04T22:02:54.750Z,73.13
2018-12-04T22:05:23.079Z,72.69
2018-12-04T22:07:51.643Z,72.21
2018-12-04T22:10:19.954Z,72.67
2018-12-04T22:12:48.338Z,72.62
2018-12-04T22:15:16.749Z,71.63
2018-12-04T22:17:45.118Z,71.48
2018-12-04T22:20:13.645Z,70.60
2018-12-04T22:22:42.051Z,72.02
2018-12-04T22:25:10.364Z,72.45
2018-12-04T22:27:38.742Z,72.89
2018-12-04T22:30:09.053Z,72.39
2018-12-04T22:32:37.345Z,73.04
2018-12-04T22:35:05.895Z,72.69
2018-12-04T22:37:34.206Z,73.40
2018-12-04T22:40:02.644Z,73.48
2018-12-04T22:42:30.957Z,72.29
2018-12-04T22:45:01.237Z,73.29
2018-12-04T22:47:29.551Z,72.77
2018-12-04T22:49:57.852Z,72.07
2018-12-04T22:52:27.265Z,72.77
2018-12-04T22:54:55.563Z,71.77
2018-12-04T22:57:23.846Z,73.11
2018-12-04T22:59:52.176Z,72.17
2018-12-04T23:02:20.620Z,72.92
2018-12-04T23:04:48.929Z,72.70
2018-12-04T23:07:17.303Z,73.24
2018-12-04T23:09:45.713Z,72.82
2018-12-04T23:12:14.887Z,73.12
2018-12-04T23:14:43.470Z,73.17
2018-12-04T23:17:11.842Z,72.10
2018-12-04T23:19:40.253Z,71.63
2018-12-04T23:22:08.683Z,72.55
2018-12-04T23:24:37.021Z,72.59
2018-12-04T23:27:05.398Z,72.72
2018-12-04T23:29:33.696Z,72.31
2018-12-04T23:32:02.055Z,72.71
2018-12-04T23:34:30.378Z,73.08
2018-12-04T23:36:58.781Z,72.69
2018-12-04T23:39:27.089Z,73.00
2018-12-04T23:41:55.403Z,73.65
2018-12-04T23:44:24.925Z,73.22
2018-12-04T23:46:53.239Z,73.29
2018-12-04T23:49:21.598Z,74.26
2018-12-04T23:51:50.117Z,74.24
2018-12-04T23:54:18.614Z,75.25
2018-12-04T23:56:46.897Z,76.57
2018-12-04T23:59:15.324Z,76.23
